sensor_id;sensor_type;location;lat;lon;timestamp;P1;durP1;ratioP1;P2;durP2;ratioP2
10174;SDS011;18221;38.704;0.152;2024-01-15T00:01:53;12.20;;;2.63;;
10174;SDS011;18221;38.704;0.152;2024-01-15T00:04:21;14.47;;;2.37;;
10174;SDS011;18221;38.704;0.152;2024-01-15T00:06:49;13.13;;;2.77;;
10174;SDS011;18221;38.704;0.152;2024-01-15T00:09:19;12.93;;;2.60;;
10174;SDS011;18221;38.704;0.152;2024-01-15T00:11:47;12.40;;;2.13;;
10174;SDS011;18221;38.704;0.152;2024-01-15T00:14:14;9.40;;;2.40;;
10174;SDS011;18221;38.704;0.152;2024-01-15T00:16:45;10.83;;;2.30;;
10174;SDS011;18221;38.704;0.152;2024-01-15T00:19:14;13.07;;;2.40;;
10174;SDS011;18221;38.704;0.152;2024-01-15T00:21:42;9.57;;;3.03;;
10174;SDS011;18221;38.704;0.152;2024-01-15T00:24:11;10.40;;;2.67;;
10174;SDS011;18221;38.704;0.152;2024-01-15T00:26:41;10.97;;;2.50;;
10174;SDS011;18221;38.704;0.152;2024-01-15T00:29:09;15.40;;;2.77;;
10174;SDS011;18221;38.704;0.152;2024-01-15T00:31:37;12.57;;;2.37;;
10174;SDS011;18221;38.704;0.152;2024-01-15T00:34:05;13.87;;;3.03;;
10174;SDS011;18221;38.704;0.152;2024-01-15T00:36:33;13.83;;;2.87;;
10174;SDS011;18221;38.704;0.152;2024-01-15T00:39:01;5.93;;;2.10;;
10174;SDS011;18221;38.704;0.152;2024-01-15T00:41:30;8.00;;;2.00;;
10174;SDS011;18221;38.704;0.152;2024-01-15T00:43:59;8.33;;;2.53;;
10174;SDS011;18221;38.704;0.152;2024-01-15T00:46:28;11.90;;;2.40;;
10174;SDS011;18221;38.704;0.152;2024-01-15T00:48:56;14.07;;;2.80;;
10174;SDS011;18221;38.704;0.152;2024-01-15T01:01:57;9.00;;;2.30;;
10174;SDS011;18221;38.704;0.152;2024-01-15T01:04:25;8.53;;;2.60;;
10174;SDS011;18221;38.704;0.152;2024-01-15T01:06:53;12.50;;;2.60;;
10174;SDS011;18221;38.704;0.152;2024-01-15T01:09:21;9.27;;;2.50;;
10174;SDS011;18221;38.704;0.152;2024-01-15T01:11:49;8.53;;;2.40;;
10174;SDS011;18221;38.704;0.152;2024-01-15T01:14:17;16.20;;;2.83;;
10174;SDS011;18221;38.704;0.152;2024-01-15T01:16:45;9.87;;;2.23;;
10174;SDS011;18221;38.704;0.152;2024-01-15T01:19:15;11.83;;;2.53;;
10174;SDS011;18221;38.704;0.152;2024-01-15T01:21:43;11.43;;;2.57;;
10174;SDS011;18221;38.704;0.152;2024-01-15T01:31:28;11.47;;;2.30;;
10174;SDS011;18221;38.704;0.152;2024-01-15T01:33:57;9.53;;;2.53;;
10174;SDS011;18221;38.704;0.152;2024-01-15T01:36:25;9.90;;;3.00;;
10174;SDS011;18221;38.704;0.152;2024-01-15T01:38:52;9.40;;;2.30;;
10174;SDS011;18221;38.704;0.152;2024-01-15T01:41:19;11.53;;;2.43;;
10174;SDS011;18221;38.704;0.152;2024-01-15T01:43:46;16.20;;;2.70;;
10174;SDS011;18221;38.704;0.152;2024-01-15T01:46:14;10.13;;;2.00;;
10174;SDS011;18221;38.704;0.152;2024-01-15T01:52:09;11.80;;;2.10;;
10174;SDS011;18221;38.704;0.152;2024-01-15T01:54:37;8.80;;;2.43;;
10174;SDS011;18221;38.704;0.152;2024-01-15T01:57:07;11.70;;;2.43;;
10174;SDS011;18221;38.704;0.152;2024-01-15T01:59:36;10.83;;;2.30;;
10174;SDS011;18221;38.704;0.152;2024-01-15T02:02:04;7.97;;;2.00;;
10174;SDS011;18221;38.704;0.152;2024-01-15T02:04:32;9.13;;;2.17;;
10174;SDS011;18221;38.704;0.152;2024-01-15T02:07:01;9.53;;;2.20;;
10174;SDS011;18221;38.704;0.152;2024-01-15T02:13:06;6.27;;;1.97;;
10174;SDS011;18221;38.704;0.152;2024-01-15T02:15:34;7.77;;;2.17;;
10174;SDS011;18221;38.704;0.152;2024-01-15T02:18:03;9.07;;;1.93;;
10174;SDS011;18221;38.704;0.152;2024-01-15T02:20:33;5.63;;;2.23;;
10174;SDS011;18221;38.704;0.152;2024-01-15T02:23:07;8.77;;;2.03;;
10174;SDS011;18221;38.704;0.152;2024-01-15T02:25:37;9.37;;;2.23;;
10174;SDS011;18221;38.704;0.152;2024-01-15T02:28:07;9.80;;;2.03;;
10174;SDS011;18221;38.704;0.152;2024-01-15T02:30:38;8.20;;;1.70;;
10174;SDS011;18221;38.704;0.152;2024-01-15T02:33:07;7.97;;;1.93;;
10174;SDS011;18221;38.704;0.152;2024-01-15T02:35:36;8.33;;;2.07;;
10174;SDS011;18221;38.704;0.152;2024-01-15T02:38:05;7.27;;;1.73;;
10174;SDS011;18221;38.704;0.152;2024-01-15T02:40:34;5.97;;;1.70;;
10174;SDS011;18221;38.704;0.152;2024-01-15T02:43:02;4.57;;;1.50;;
10174;SDS011;18221;38.704;0.152;2024-01-15T02:45:31;10.07;;;2.30;;
10174;SDS011;18221;38.704;0.152;2024-01-15T02:47:57;5.73;;;1.70;;
10174;SDS011;18221;38.704;0.152;2024-01-15T02:50:26;9.00;;;2.77;;
10174;SDS011;18221;38.704;0.152;2024-01-15T02:52:54;5.87;;;1.87;;
10174;SDS011;18221;38.704;0.152;2024-01-15T02:55:23;7.23;;;1.83;;
10174;SDS011;18221;38.704;0.152;2024-01-15T02:57:51;5.73;;;1.70;;
10174;SDS011;18221;38.704;0.152;2024-01-15T03:00:19;4.47;;;2.27;;
10174;SDS011;18221;38.704;0.152;2024-01-15T03:02:47;4.97;;;1.70;;
10174;SDS011;18221;38.704;0.152;2024-01-15T03:05:17;11.00;;;2.20;;
10174;SDS011;18221;38.704;0.152;2024-01-15T03:07:45;7.20;;;1.80;;
10174;SDS011;18221;38.704;0.152;2024-01-15T03:10:13;5.60;;;1.53;;
10174;SDS011;18221;38.704;0.152;2024-01-15T03:12:42;7.43;;;2.13;;
10174;SDS011;18221;38.704;0.152;2024-01-15T03:15:10;4.00;;;1.50;;
10174;SDS011;18221;38.704;0.152;2024-01-15T03:17:38;2.53;;;1.33;;
10174;SDS011;18221;38.704;0.152;2024-01-15T03:20:08;4.57;;;1.80;;
10174;SDS011;18221;38.704;0.152;2024-01-15T03:22:37;6.07;;;1.50;;
10174;SDS011;18221;38.704;0.152;2024-01-15T03:25:05;4.93;;;1.50;;
10174;SDS011;18221;38.704;0.152;2024-01-15T03:27:34;5.10;;;1.43;;
10174;SDS011;18221;38.704;0.152;2024-01-15T03:30:04;3.87;;;1.70;;
10174;SDS011;18221;38.704;0.152;2024-01-15T03:32:33;3.47;;;1.40;;
10174;SDS011;18221;38.704;0.152;2024-01-15T03:35:01;5.40;;;1.70;;
10174;SDS011;18221;38.704;0.152;2024-01-15T03:37:29;9.23;;;1.57;;
10174;SDS011;18221;38.704;0.152;2024-01-15T03:39:57;6.67;;;1.70;;
10174;SDS011;18221;38.704;0.152;2024-01-15T03:42:25;4.83;;;1.53;;
10174;SDS011;18221;38.704;0.152;2024-01-15T03:44:53;6.60;;;1.93;;
10174;SDS011;18221;38.704;0.152;2024-01-15T03:47:22;6.63;;;1.80;;
10174;SDS011;18221;38.704;0.152;2024-01-15T03:49:50;5.37;;;1.60;;
10174;SDS011;18221;38.704;0.152;2024-01-15T03:52:18;4.83;;;1.67;;
10174;SDS011;18221;38.704;0.152;2024-01-15T03:54:46;5.27;;;2.00;;
10174;SDS011;18221;38.704;0.152;2024-01-15T03:57:13;4.13;;;1.57;;
10174;SDS011;18221;38.704;0.152;2024-01-15T03:59:41;6.87;;;1.80;;
10174;SDS011;18221;38.704;0.152;2024-01-15T04:02:12;5.83;;;1.60;;
10174;SDS011;18221;38.704;0.152;2024-01-15T04:04:42;5.83;;;1.63;;
10174;SDS011;18221;38.704;0.152;2024-01-15T04:07:10;3.53;;;1.50;;
10174;SDS011;18221;38.704;0.152;2024-01-15T04:09:38;2.57;;;1.30;;
10174;SDS011;18221;38.704;0.152;2024-01-15T04:12:07;6.00;;;1.60;;
10174;SDS011;18221;38.704;0.152;2024-01-15T04:14:35;2.30;;;1.30;;
10174;SDS011;18221;38.704;0.152;2024-01-15T04:17:03;6.67;;;1.67;;
10174;SDS011;18221;38.704;0.152;2024-01-15T04:19:31;4.53;;;1.73;;
10174;SDS011;18221;38.704;0.152;2024-01-15T04:22:00;4.50;;;1.60;;
10174;SDS011;18221;38.704;0.152;2024-01-15T04:24:28;7.53;;;1.60;;
10174;SDS011;18221;38.704;0.152;2024-01-15T04:26:58;2.13;;;1.60;;
10174;SDS011;18221;38.704;0.152;2024-01-15T04:29:26;7.30;;;1.90;;
10174;SDS011;18221;38.704;0.152;2024-01-15T04:31:54;4.67;;;1.90;;
10174;SDS011;18221;38.704;0.152;2024-01-15T04:34:21;7.60;;;2.73;;
10174;SDS011;18221;38.704;0.152;2024-01-15T04:36:49;7.37;;;2.50;;
10174;SDS011;18221;38.704;0.152;2024-01-15T04:39:19;5.23;;;1.83;;
10174;SDS011;18221;38.704;0.152;2024-01-15T04:41:47;8.00;;;2.30;;
10174;SDS011;18221;38.704;0.152;2024-01-15T04:44:16;8.23;;;2.10;;
10174;SDS011;18221;38.704;0.152;2024-01-15T04:46:44;7.40;;;1.80;;
10174;SDS011;18221;38.704;0.152;2024-01-15T04:49:10;6.43;;;1.73;;
10174;SDS011;18221;38.704;0.152;2024-01-15T04:51:38;7.53;;;2.27;;
10174;SDS011;18221;38.704;0.152;2024-01-15T04:54:06;7.07;;;2.00;;
10174;SDS011;18221;38.704;0.152;2024-01-15T04:56:36;5.80;;;2.10;;
10174;SDS011;18221;38.704;0.152;2024-01-15T04:59:04;6.97;;;2.13;;
10174;SDS011;18221;38.704;0.152;2024-01-15T05:01:32;7.50;;;2.70;;
10174;SDS011;18221;38.704;0.152;2024-01-15T05:04:00;5.33;;;2.00;;
10174;SDS011;18221;38.704;0.152;2024-01-15T05:06:27;7.87;;;2.10;;
10174;SDS011;18221;38.704;0.152;2024-01-15T05:08:55;6.60;;;1.80;;
10174;SDS011;18221;38.704;0.152;2024-01-15T05:11:23;10.00;;;2.43;;
10174;SDS011;18221;38.704;0.152;2024-01-15T05:13:52;5.63;;;2.30;;
10174;SDS011;18221;38.704;0.152;2024-01-15T05:16:20;6.80;;;2.10;;
10174;SDS011;18221;38.704;0.152;2024-01-15T05:18:48;5.53;;;2.13;;
10174;SDS011;18221;38.704;0.152;2024-01-15T05:21:16;5.77;;;1.70;;
10174;SDS011;18221;38.704;0.152;2024-01-15T05:23:44;7.73;;;2.50;;
10174;SDS011;18221;38.704;0.152;2024-01-15T05:26:13;4.27;;;1.83;;
10174;SDS011;18221;38.704;0.152;2024-01-15T05:28:41;4.60;;;2.10;;
10174;SDS011;18221;38.704;0.152;2024-01-15T05:31:10;7.87;;;1.97;;
10174;SDS011;18221;38.704;0.152;2024-01-15T05:33:38;4.23;;;1.70;;
10174;SDS011;18221;38.704;0.152;2024-01-15T05:36:06;9.67;;;2.17;;
10174;SDS011;18221;38.704;0.152;2024-01-15T05:38:35;8.33;;;2.30;;
10174;SDS011;18221;38.704;0.152;2024-01-15T05:41:03;4.63;;;2.00;;
10174;SDS011;18221;38.704;0.152;2024-01-15T05:43:31;10.00;;;2.53;;
10174;SDS011;18221;38.704;0.152;2024-01-15T05:45:59;9.13;;;2.50;;
10174;SDS011;18221;38.704;0.152;2024-01-15T05:48:29;5.60;;;2.10;;
10174;SDS011;18221;38.704;0.152;2024-01-15T05:50:57;4.23;;;2.17;;
10174;SDS011;18221;38.704;0.152;2024-01-15T05:53:25;9.53;;;2.60;;
10174;SDS011;18221;38.704;0.152;2024-01-15T05:55:53;7.73;;;2.23;;
10174;SDS011;18221;38.704;0.152;2024-01-15T05:58:22;8.57;;;2.77;;
10174;SDS011;18221;38.704;0.152;2024-01-15T06:00:49;8.53;;;2.33;;
10174;SDS011;18221;38.704;0.152;2024-01-15T06:03:17;9.43;;;2.30;;
10174;SDS011;18221;38.704;0.152;2024-01-15T06:05:47;6.67;;;2.40;;
10174;SDS011;18221;38.704;0.152;2024-01-15T06:08:15;10.10;;;2.57;;
10174;SDS011;18221;38.704;0.152;2024-01-15T06:10:44;7.30;;;2.50;;
10174;SDS011;18221;38.704;0.152;2024-01-15T06:13:12;10.63;;;2.90;;
10174;SDS011;18221;38.704;0.152;2024-01-15T06:15:40;8.00;;;2.33;;
10174;SDS011;18221;38.704;0.152;2024-01-15T06:18:08;7.63;;;2.40;;
10174;SDS011;18221;38.704;0.152;2024-01-15T06:20:36;4.77;;;2.30;;
10174;SDS011;18221;38.704;0.152;2024-01-15T06:23:05;5.73;;;2.00;;
10174;SDS011;18221;38.704;0.152;2024-01-15T06:25:33;10.13;;;2.10;;
10174;SDS011;18221;38.704;0.152;2024-01-15T06:28:04;11.90;;;2.37;;
10174;SDS011;18221;38.704;0.152;2024-01-15T06:30:32;6.07;;;2.13;;
10174;SDS011;18221;38.704;0.152;2024-01-15T06:33:01;5.03;;;1.90;;
10174;SDS011;18221;38.704;0.152;2024-01-15T06:35:29;11.47;;;2.73;;
10174;SDS011;18221;38.704;0.152;2024-01-15T06:37:57;8.03;;;2.20;;
10174;SDS011;18221;38.704;0.152;2024-01-15T06:40:26;7.27;;;2.57;;
10174;SDS011;18221;38.704;0.152;2024-01-15T06:42:54;6.37;;;2.20;;
10174;SDS011;18221;38.704;0.152;2024-01-15T06:45:24;7.17;;;2.53;;
10174;SDS011;18221;38.704;0.152;2024-01-15T06:47:52;7.97;;;2.40;;
10174;SDS011;18221;38.704;0.152;2024-01-15T06:50:19;7.23;;;2.57;;
10174;SDS011;18221;38.704;0.152;2024-01-15T06:52:47;6.07;;;1.80;;
10174;SDS011;18221;38.704;0.152;2024-01-15T06:55:15;5.47;;;2.37;;
10174;SDS011;18221;38.704;0.152;2024-01-15T06:57:45;7.17;;;2.10;;
10174;SDS011;18221;38.704;0.152;2024-01-15T07:00:13;7.20;;;2.60;;
10174;SDS011;18221;38.704;0.152;2024-01-15T07:02:42;8.20;;;2.57;;
10174;SDS011;18221;38.704;0.152;2024-01-15T07:05:10;5.17;;;2.10;;
10174;SDS011;18221;38.704;0.152;2024-01-15T07:07:38;5.77;;;2.30;;
10174;SDS011;18221;38.704;0.152;2024-01-15T07:10:06;9.93;;;2.33;;
10174;SDS011;18221;38.704;0.152;2024-01-15T07:12:35;6.33;;;2.50;;
10174;SDS011;18221;38.704;0.152;2024-01-15T07:15:05;6.07;;;2.43;;
10174;SDS011;18221;38.704;0.152;2024-01-15T07:17:33;9.73;;;2.23;;
10174;SDS011;18221;38.704;0.152;2024-01-15T07:20:05;6.53;;;2.13;;
10174;SDS011;18221;38.704;0.152;2024-01-15T07:22:35;6.80;;;2.27;;
10174;SDS011;18221;38.704;0.152;2024-01-15T07:25:03;9.60;;;1.97;;
10174;SDS011;18221;38.704;0.152;2024-01-15T07:27:32;9.43;;;2.70;;
10174;SDS011;18221;38.704;0.152;2024-01-15T07:30:00;5.50;;;2.43;;
10174;SDS011;18221;38.704;0.152;2024-01-15T07:32:32;6.10;;;2.57;;
10174;SDS011;18221;38.704;0.152;2024-01-15T07:34:59;6.97;;;2.23;;
10174;SDS011;18221;38.704;0.152;2024-01-15T07:37:27;16.73;;;13.17;;
10174;SDS011;18221;38.704;0.152;2024-01-15T07:39:55;6.97;;;3.03;;
10174;SDS011;18221;38.704;0.152;2024-01-15T07:42:23;9.80;;;2.53;;
10174;SDS011;18221;38.704;0.152;2024-01-15T07:44:51;8.37;;;2.63;;
10174;SDS011;18221;38.704;0.152;2024-01-15T07:47:19;10.77;;;2.70;;
10174;SDS011;18221;38.704;0.152;2024-01-15T07:49:48;6.60;;;2.30;;
10174;SDS011;18221;38.704;0.152;2024-01-15T07:52:16;5.67;;;2.50;;
10174;SDS011;18221;38.704;0.152;2024-01-15T07:54:44;8.47;;;2.83;;
10174;SDS011;18221;38.704;0.152;2024-01-15T07:57:12;6.17;;;2.13;;
10174;SDS011;18221;38.704;0.152;2024-01-15T07:59:40;8.03;;;2.50;;
10174;SDS011;18221;38.704;0.152;2024-01-15T08:02:08;8.03;;;2.80;;
10174;SDS011;18221;38.704;0.152;2024-01-15T08:04:36;3.47;;;2.10;;
10174;SDS011;18221;38.704;0.152;2024-01-15T08:07:06;4.57;;;2.13;;
10174;SDS011;18221;38.704;0.152;2024-01-15T08:09:34;6.60;;;2.27;;
10174;SDS011;18221;38.704;0.152;2024-01-15T08:12:02;8.70;;;2.20;;
10174;SDS011;18221;38.704;0.152;2024-01-15T08:14:31;6.57;;;2.23;;
10174;SDS011;18221;38.704;0.152;2024-01-15T08:16:59;8.87;;;2.87;;
10174;SDS011;18221;38.704;0.152;2024-01-15T08:19:27;10.23;;;2.13;;
10174;SDS011;18221;38.704;0.152;2024-01-15T08:21:55;7.23;;;2.10;;
10174;SDS011;18221;38.704;0.152;2024-01-15T08:24:24;6.90;;;2.20;;
10174;SDS011;18221;38.704;0.152;2024-01-15T08:26:52;5.17;;;1.97;;
10174;SDS011;18221;38.704;0.152;2024-01-15T08:29:21;7.07;;;1.83;;
10174;SDS011;18221;38.704;0.152;2024-01-15T08:31:50;6.63;;;1.70;;
10174;SDS011;18221;38.704;0.152;2024-01-15T08:34:18;6.97;;;2.10;;
10174;SDS011;18221;38.704;0.152;2024-01-15T08:36:45;5.60;;;2.03;;
10174;SDS011;18221;38.704;0.152;2024-01-15T08:39:13;6.20;;;1.93;;
10174;SDS011;18221;38.704;0.152;2024-01-15T08:41:43;6.30;;;1.60;;
10174;SDS011;18221;38.704;0.152;2024-01-15T08:44:11;9.07;;;1.70;;
10174;SDS011;18221;38.704;0.152;2024-01-15T08:46:39;4.17;;;1.73;;
10174;SDS011;18221;38.704;0.152;2024-01-15T08:49:07;3.63;;;1.50;;
10174;SDS011;18221;38.704;0.152;2024-01-15T08:51:35;7.57;;;2.07;;
10174;SDS011;18221;38.704;0.152;2024-01-15T08:54:03;3.33;;;1.60;;
10174;SDS011;18221;38.704;0.152;2024-01-15T08:56:33;2.27;;;1.40;;
10174;SDS011;18221;38.704;0.152;2024-01-15T08:59:02;3.30;;;1.50;;
10174;SDS011;18221;38.704;0.152;2024-01-15T09:01:30;3.90;;;1.20;;
10174;SDS011;18221;38.704;0.152;2024-01-15T09:03:58;4.70;;;1.90;;
10174;SDS011;18221;38.704;0.152;2024-01-15T09:06:26;7.20;;;1.70;;
10174;SDS011;18221;38.704;0.152;2024-01-15T09:08:54;2.90;;;1.37;;
10174;SDS011;18221;38.704;0.152;2024-01-15T09:11:22;3.83;;;1.20;;
10174;SDS011;18221;38.704;0.152;2024-01-15T09:13:50;3.53;;;1.40;;
10174;SDS011;18221;38.704;0.152;2024-01-15T09:16:19;6.20;;;2.40;;
10174;SDS011;18221;38.704;0.152;2024-01-15T09:18:48;6.90;;;2.10;;
10174;SDS011;18221;38.704;0.152;2024-01-15T09:21:15;4.77;;;1.77;;
10174;SDS011;18221;38.704;0.152;2024-01-15T09:23:44;5.73;;;1.90;;
10174;SDS011;18221;38.704;0.152;2024-01-15T09:26:11;2.20;;;1.80;;
10174;SDS011;18221;38.704;0.152;2024-01-15T09:28:39;5.27;;;2.30;;
10174;SDS011;18221;38.704;0.152;2024-01-15T09:31:07;7.13;;;2.10;;
10174;SDS011;18221;38.704;0.152;2024-01-15T09:33:36;4.87;;;1.70;;
10174;SDS011;18221;38.704;0.152;2024-01-15T09:36:05;2.70;;;1.60;;
10174;SDS011;18221;38.704;0.152;2024-01-15T09:38:33;6.07;;;1.80;;
10174;SDS011;18221;38.704;0.152;2024-01-15T09:41:01;6.20;;;2.00;;
10174;SDS011;18221;38.704;0.152;2024-01-15T09:43:30;3.77;;;1.70;;
10174;SDS011;18221;38.704;0.152;2024-01-15T09:45:58;4.00;;;1.90;;
10174;SDS011;18221;38.704;0.152;2024-01-15T09:48:27;5.43;;;1.50;;
10174;SDS011;18221;38.704;0.152;2024-01-15T09:50:57;2.27;;;1.40;;
10174;SDS011;18221;38.704;0.152;2024-01-15T09:53:25;4.83;;;1.30;;
10174;SDS011;18221;38.704;0.152;2024-01-15T09:55:53;5.37;;;2.20;;
10174;SDS011;18221;38.704;0.152;2024-01-15T09:58:21;5.63;;;2.30;;
10174;SDS011;18221;38.704;0.152;2024-01-15T10:00:49;6.70;;;2.70;;
10174;SDS011;18221;38.704;0.152;2024-01-15T10:03:19;5.60;;;2.20;;
10174;SDS011;18221;38.704;0.152;2024-01-15T10:05:47;5.97;;;2.13;;
10174;SDS011;18221;38.704;0.152;2024-01-15T10:08:18;5.43;;;2.30;;
10174;SDS011;18221;38.704;0.152;2024-01-15T10:10:50;7.97;;;2.73;;
10174;SDS011;18221;38.704;0.152;2024-01-15T10:13:18;4.37;;;2.37;;
10174;SDS011;18221;38.704;0.152;2024-01-15T10:15:48;5.47;;;2.07;;
10174;SDS011;18221;38.704;0.152;2024-01-15T10:18:16;12.23;;;3.00;;
10174;SDS011;18221;38.704;0.152;2024-01-15T10:20:44;14.00;;;4.13;;
10174;SDS011;18221;38.704;0.152;2024-01-15T10:23:14;12.53;;;2.60;;
10174;SDS011;18221;38.704;0.152;2024-01-15T10:25:43;12.13;;;2.80;;
10174;SDS011;18221;38.704;0.152;2024-01-15T10:28:11;12.17;;;3.20;;
10174;SDS011;18221;38.704;0.152;2024-01-15T10:30:40;16.40;;;3.50;;
10174;SDS011;18221;38.704;0.152;2024-01-15T10:33:08;10.93;;;2.60;;
10174;SDS011;18221;38.704;0.152;2024-01-15T10:35:37;8.03;;;2.30;;
10174;SDS011;18221;38.704;0.152;2024-01-15T10:38:05;5.07;;;1.80;;
10174;SDS011;18221;38.704;0.152;2024-01-15T10:40:33;9.30;;;2.50;;
10174;SDS011;18221;38.704;0.152;2024-01-15T10:43:03;10.67;;;2.97;;
10174;SDS011;18221;38.704;0.152;2024-01-15T10:45:31;7.70;;;2.30;;
10174;SDS011;18221;38.704;0.152;2024-01-15T10:47:58;10.23;;;2.50;;
10174;SDS011;18221;38.704;0.152;2024-01-15T10:50:27;3.43;;;2.00;;
10174;SDS011;18221;38.704;0.152;2024-01-15T10:52:58;5.27;;;2.17;;
10174;SDS011;18221;38.704;0.152;2024-01-15T10:55:27;4.13;;;1.80;;
10174;SDS011;18221;38.704;0.152;2024-01-15T10:57:57;4.87;;;2.23;;
10174;SDS011;18221;38.704;0.152;2024-01-15T11:05:49;6.43;;;2.37;;
10174;SDS011;18221;38.704;0.152;2024-01-15T11:08:26;5.50;;;1.90;;
10174;SDS011;18221;38.704;0.152;2024-01-15T11:10:55;5.33;;;2.03;;
10174;SDS011;18221;38.704;0.152;2024-01-15T11:13:40;3.93;;;1.93;;
10174;SDS011;18221;38.704;0.152;2024-01-15T11:16:10;2.57;;;1.40;;
10174;SDS011;18221;38.704;0.152;2024-01-15T11:18:40;3.50;;;1.63;;
10174;SDS011;18221;38.704;0.152;2024-01-15T11:21:21;3.90;;;1.10;;
10174;SDS011;18221;38.704;0.152;2024-01-15T11:23:53;1.70;;;1.30;;
10174;SDS011;18221;38.704;0.152;2024-01-15T11:26:27;1.83;;;1.20;;
10174;SDS011;18221;38.704;0.152;2024-01-15T11:29:03;2.13;;;1.37;;
10174;SDS011;18221;38.704;0.152;2024-01-15T11:37:29;3.37;;;1.60;;
10174;SDS011;18221;38.704;0.152;2024-01-15T11:40:36;1.37;;;1.20;;
10174;SDS011;18221;38.704;0.152;2024-01-15T11:43:08;1.87;;;1.10;;
10174;SDS011;18221;38.704;0.152;2024-01-15T11:45:38;4.07;;;1.40;;
10174;SDS011;18221;38.704;0.152;2024-01-15T11:48:11;2.23;;;1.37;;
10174;SDS011;18221;38.704;0.152;2024-01-15T11:50:43;2.83;;;1.20;;
10174;SDS011;18221;38.704;0.152;2024-01-15T11:53:21;1.73;;;1.20;;
10174;SDS011;18221;38.704;0.152;2024-01-15T11:55:59;1.83;;;1.00;;
10174;SDS011;18221;38.704;0.152;2024-01-15T11:58:33;2.40;;;1.00;;
10174;SDS011;18221;38.704;0.152;2024-01-15T12:01:03;5.20;;;1.00;;
10174;SDS011;18221;38.704;0.152;2024-01-15T12:03:32;2.90;;;1.00;;
10174;SDS011;18221;38.704;0.152;2024-01-15T12:06:00;1.30;;;1.20;;
10174;SDS011;18221;38.704;0.152;2024-01-15T12:08:29;1.67;;;1.10;;
10174;SDS011;18221;38.704;0.152;2024-01-15T12:10:57;1.30;;;1.20;;
10174;SDS011;18221;38.704;0.152;2024-01-15T12:13:26;2.63;;;1.30;;
10174;SDS011;18221;38.704;0.152;2024-01-15T12:15:54;1.70;;;1.10;;
10174;SDS011;18221;38.704;0.152;2024-01-15T12:18:22;1.87;;;1.10;;
10174;SDS011;18221;38.704;0.152;2024-01-15T12:20:53;2.50;;;1.20;;
10174;SDS011;18221;38.704;0.152;2024-01-15T12:23:21;3.13;;;1.10;;
10174;SDS011;18221;38.704;0.152;2024-01-15T12:25:54;2.23;;;1.10;;
10174;SDS011;18221;38.704;0.152;2024-01-15T12:28:22;2.20;;;1.20;;
10174;SDS011;18221;38.704;0.152;2024-01-15T12:30:50;1.53;;;1.10;;
10174;SDS011;18221;38.704;0.152;2024-01-15T12:33:18;3.07;;;1.60;;
10174;SDS011;18221;38.704;0.152;2024-01-15T12:35:47;4.10;;;1.30;;
10174;SDS011;18221;38.704;0.152;2024-01-15T12:38:14;3.27;;;1.23;;
10174;SDS011;18221;38.704;0.152;2024-01-15T12:40:45;5.57;;;1.50;;
10174;SDS011;18221;38.704;0.152;2024-01-15T12:43:16;4.63;;;1.33;;
10174;SDS011;18221;38.704;0.152;2024-01-15T12:45:45;5.03;;;1.50;;
10174;SDS011;18221;38.704;0.152;2024-01-15T12:48:13;1.20;;;1.10;;
10174;SDS011;18221;38.704;0.152;2024-01-15T12:50:42;2.10;;;1.20;;
10174;SDS011;18221;38.704;0.152;2024-01-15T12:53:11;4.73;;;1.70;;
10174;SDS011;18221;38.704;0.152;2024-01-15T12:55:38;1.10;;;1.00;;
10174;SDS011;18221;38.704;0.152;2024-01-15T12:58:06;1.90;;;1.00;;
10174;SDS011;18221;38.704;0.152;2024-01-15T13:00:37;2.63;;;1.10;;
10174;SDS011;18221;38.704;0.152;2024-01-15T13:03:08;2.23;;;1.03;;
10174;SDS011;18221;38.704;0.152;2024-01-15T13:05:36;1.23;;;1.07;;
10174;SDS011;18221;38.704;0.152;2024-01-15T13:08:05;2.03;;;1.03;;
10174;SDS011;18221;38.704;0.152;2024-01-15T13:10:33;1.43;;;1.00;;
10174;SDS011;18221;38.704;0.152;2024-01-15T13:13:01;2.97;;;1.30;;
10174;SDS011;18221;38.704;0.152;2024-01-15T13:15:29;2.57;;;1.20;;
10174;SDS011;18221;38.704;0.152;2024-01-15T13:17:58;2.57;;;1.40;;
10174;SDS011;18221;38.704;0.152;2024-01-15T13:20:26;1.33;;;1.10;;
10174;SDS011;18221;38.704;0.152;2024-01-15T13:22:54;3.03;;;1.50;;
10174;SDS011;18221;38.704;0.152;2024-01-15T13:25:22;1.60;;;1.10;;
10174;SDS011;18221;38.704;0.152;2024-01-15T13:27:50;1.70;;;1.20;;
10174;SDS011;18221;38.704;0.152;2024-01-15T13:30:18;2.43;;;1.40;;
10174;SDS011;18221;38.704;0.152;2024-01-15T13:32:45;2.20;;;1.20;;
10174;SDS011;18221;38.704;0.152;2024-01-15T13:35:15;1.87;;;1.27;;
10174;SDS011;18221;38.704;0.152;2024-01-15T13:37:43;2.67;;;1.20;;
10174;SDS011;18221;38.704;0.152;2024-01-15T13:40:11;5.90;;;1.30;;
10174;SDS011;18221;38.704;0.152;2024-01-15T13:42:41;2.10;;;1.07;;
10174;SDS011;18221;38.704;0.152;2024-01-15T13:45:09;2.50;;;1.50;;
10174;SDS011;18221;38.704;0.152;2024-01-15T13:47:39;5.93;;;1.30;;
10174;SDS011;18221;38.704;0.152;2024-01-15T13:50:08;1.47;;;1.10;;
10174;SDS011;18221;38.704;0.152;2024-01-15T13:52:38;1.40;;;1.17;;
10174;SDS011;18221;38.704;0.152;2024-01-15T13:55:06;1.73;;;1.10;;
10174;SDS011;18221;38.704;0.152;2024-01-15T13:57:35;2.73;;;1.07;;
10174;SDS011;18221;38.704;0.152;2024-01-15T14:00:03;2.10;;;1.20;;
10174;SDS011;18221;38.704;0.152;2024-01-15T14:02:36;3.43;;;1.20;;
10174;SDS011;18221;38.704;0.152;2024-01-15T14:05:04;2.43;;;1.10;;
10174;SDS011;18221;38.704;0.152;2024-01-15T14:07:32;1.43;;;1.10;;
10174;SDS011;18221;38.704;0.152;2024-01-15T14:10:02;4.17;;;1.27;;
10174;SDS011;18221;38.704;0.152;2024-01-15T14:12:31;4.83;;;1.60;;
10174;SDS011;18221;38.704;0.152;2024-01-15T14:15:00;2.10;;;1.20;;
10174;SDS011;18221;38.704;0.152;2024-01-15T14:17:28;2.33;;;1.20;;
10174;SDS011;18221;38.704;0.152;2024-01-15T14:19:57;1.77;;;1.00;;
10174;SDS011;18221;38.704;0.152;2024-01-15T14:22:24;2.43;;;1.20;;
10174;SDS011;18221;38.704;0.152;2024-01-15T14:24:52;2.67;;;1.23;;
10174;SDS011;18221;38.704;0.152;2024-01-15T14:27:22;3.00;;;1.17;;
10174;SDS011;18221;38.704;0.152;2024-01-15T14:29:51;1.87;;;1.20;;
10174;SDS011;18221;38.704;0.152;2024-01-15T14:32:19;2.60;;;1.20;;
10174;SDS011;18221;38.704;0.152;2024-01-15T14:34:47;2.03;;;1.20;;
10174;SDS011;18221;38.704;0.152;2024-01-15T14:37:14;1.87;;;1.20;;
10174;SDS011;18221;38.704;0.152;2024-01-15T14:39:44;1.80;;;1.20;;
10174;SDS011;18221;38.704;0.152;2024-01-15T14:42:12;1.90;;;1.20;;
10174;SDS011;18221;38.704;0.152;2024-01-15T14:44:41;1.70;;;1.50;;
10174;SDS011;18221;38.704;0.152;2024-01-15T14:47:09;1.93;;;1.50;;
10174;SDS011;18221;38.704;0.152;2024-01-15T14:49:37;1.70;;;1.10;;
10174;SDS011;18221;38.704;0.152;2024-01-15T14:52:05;1.27;;;1.07;;
10174;SDS011;18221;38.704;0.152;2024-01-15T14:54:33;1.50;;;1.23;;
10174;SDS011;18221;38.704;0.152;2024-01-15T14:57:01;1.33;;;1.00;;
10174;SDS011;18221;38.704;0.152;2024-01-15T14:59:29;3.43;;;1.40;;
10174;SDS011;18221;38.704;0.152;2024-01-15T15:01:58;2.20;;;1.30;;
10174;SDS011;18221;38.704;0.152;2024-01-15T15:04:26;1.40;;;1.27;;
10174;SDS011;18221;38.704;0.152;2024-01-15T15:06:55;2.80;;;1.20;;
10174;SDS011;18221;38.704;0.152;2024-01-15T15:09:23;2.80;;;1.10;;
10174;SDS011;18221;38.704;0.152;2024-01-15T15:11:51;3.13;;;1.10;;
10174;SDS011;18221;38.704;0.152;2024-01-15T15:14:19;2.97;;;1.60;;
10174;SDS011;18221;38.704;0.152;2024-01-15T15:16:47;3.27;;;1.20;;
10174;SDS011;18221;38.704;0.152;2024-01-15T15:19:17;2.67;;;1.20;;
10174;SDS011;18221;38.704;0.152;2024-01-15T15:21:45;3.03;;;1.10;;
10174;SDS011;18221;38.704;0.152;2024-01-15T15:24:13;2.40;;;1.10;;
10174;SDS011;18221;38.704;0.152;2024-01-15T15:26:41;2.37;;;1.03;;
10174;SDS011;18221;38.704;0.152;2024-01-15T15:29:09;1.60;;;1.13;;
10174;SDS011;18221;38.704;0.152;2024-01-15T15:31:37;1.27;;;1.10;;